Time;durP1;ratioP1;P1;durP2;ratioP2;P2;SDS_P1;SDS_P2;PMS_P1;PMS_P2;Temp;Humidity;BMP_temperature;BMP_pressure;BME280_temperature;BME280_humidity;BME280_pressure;Samples;Min_cycle;Max_cycle;Signal;HPM_P1;HPM_P2
2020/12/07 00:01:33;;;;;;;11.52;7.45;;;8.90;69.50;;;;;;4981553;28;20529;-76
2020/12/07 00:03:59;;;;;;;11.25;7.60;;;8.80;69.50;;;;;;4981563;28;20097;-76
2020/12/07 00:06:24;;;;;;;11.77;7.75;;;8.80;69.50;;;;;;4984030;28;20035;-76
2020/12/07 00:08:50;;;;;;;9.60;6.63;;;8.80;69.60;;;;;;4986131;28;20049;-76
2020/12/07 00:11:15;;;;;;;10.77;7.30;;;8.80;69.60;;;;;;4986052;28;20101;-76
2020/12/07 00:13:41;;;;;;;10.38;7.22;;;8.80;69.60;;;;;;4980972;28;20045;-76
2020/12/07 00:16:08;;;;;;;11.50;7.47;;;8.70;69.60;;;;;;4983835;28;20121;-76
2020/12/07 00:18:35;;;;;;;12.23;6.78;;;8.80;69.80;;;;;;4980057;28;20387;-76
2020/12/07 00:21:01;;;;;;;10.82;7.88;;;8.90;69.90;;;;;;4986982;28;20114;-76
2020/12/07 00:23:26;;;;;;;12.70;8.30;;;8.70;69.90;;;;;;4984855;28;20517;-76
2020/12/07 00:25:52;;;;;;;11.00;7.68;;;8.80;69.90;;;;;;4983879;28;20027;-76
2020/12/07 00:28:17;;;;;;;11.13;7.60;;;8.80;69.90;;;;;;4976953;28;20067;-76
2020/12/07 00:30:43;;;;;;;9.98;7.28;;;8.80;69.90;;;;;;4983114;28;20092;-76
2020/12/07 00:33:09;;;;;;;11.63;7.65;;;8.80;69.90;;;;;;4980835;28;20469;-76
2020/12/07 00:35:34;;;;;;;12.23;8.20;;;8.80;69.90;;;;;;4983932;28;20117;-76
2020/12/07 00:38:00;;;;;;;12.55;7.63;;;8.80;70.00;;;;;;4985735;28;20073;-76
2020/12/07 00:40:25;;;;;;;10.50;8.10;;;8.80;70.00;;;;;;4984437;28;20037;-75
2020/12/07 00:42:51;;;;;;;12.85;7.18;;;8.80;70.00;;;;;;4975469;28;20116;-76
2020/12/07 00:45:16;;;;;;;10.48;7.45;;;8.80;70.00;;;;;;4985568;28;20037;-76
2020/12/07 00:47:42;;;;;;;9.63;6.43;;;8.80;70.10;;;;;;4982118;28;20397;-75
2020/12/07 00:50:07;;;;;;;10.40;6.82;;;8.80;70.10;;;;;;4982192;28;20528;-76
2020/12/07 00:52:33;;;;;;;11.43;7.00;;;8.80;70.10;;;;;;4982803;28;20445;-75
2020/12/07 00:54:58;;;;;;;13.93;8.90;;;8.80;70.20;;;;;;4983156;28;20033;-76
2020/12/07 00:57:24;;;;;;;11.30;7.22;;;8.90;70.20;;;;;;4979209;28;20685;-75
2020/12/07 00:59:49;;;;;;;9.30;6.90;;;8.90;70.20;;;;;;4983045;28;20038;-76
2020/12/07 01:02:15;;;;;;;12.00;7.55;;;8.90;70.10;;;;;;4979924;28;20026;-75
2020/12/07 01:04:40;;;;;;;10.52;7.30;;;8.80;70.00;;;;;;4983077;28;20525;-76
2020/12/07 01:07:06;;;;;;;9.57;6.82;;;8.90;70.10;;;;;;4986070;28;20030;-76
2020/12/07 01:09:31;;;;;;;11.32;7.50;;;8.90;70.10;;;;;;4984428;28;20084;-76
2020/12/07 01:11:59;;;;;;;10.25;6.72;;;8.90;70.10;;;;;;4977930;28;20402;-76
2020/12/07 01:14:25;;;;;;;11.20;7.75;;;8.90;70.10;;;;;;4979093;28;20035;-76
2020/12/07 01:16:51;;;;;;;10.98;6.93;;;8.90;70.10;;;;;;4982173;28;20536;-76
2020/12/07 01:19:17;;;;;;;10.23;7.43;;;8.90;70.00;;;;;;4963490;28;20042;-76
2020/12/07 01:21:42;;;;;;;11.05;7.43;;;8.90;70.00;;;;;;4986554;28;20067;-76
2020/12/07 01:24:08;;;;;;;10.20;6.78;;;8.90;70.00;;;;;;4982616;28;20505;-76
2020/12/07 01:26:34;;;;;;;11.35;7.53;;;8.90;70.00;;;;;;4976544;28;20553;-76
2020/12/07 01:29:04;;;;;;;9.80;7.05;;;8.90;70.00;;;;;;4985686;28;20038;-76
2020/12/07 01:31:29;;;;;;;10.85;7.43;;;8.90;70.00;;;;;;4985550;28;20524;-76
2020/12/07 01:33:55;;;;;;;10.95;6.88;;;8.90;70.00;;;;;;4977978;28;20030;-76
2020/12/07 01:36:20;;;;;;;13.07;7.82;;;8.90;70.00;;;;;;4980946;28;20045;-76
2020/12/07 01:38:46;;;;;;;11.40;7.65;;;8.90;70.00;;;;;;4985573;28;20043;-76
2020/12/07 01:41:12;;;;;;;10.82;7.03;;;8.90;70.00;;;;;;4983371;28;20035;-75
2020/12/07 01:43:37;;;;;;;9.80;6.60;;;8.90;70.00;;;;;;4977640;28;20041;-75
2020/12/07 01:46:05;;;;;;;8.90;6.40;;;8.90;69.90;;;;;;4983774;28;20062;-76
2020/12/07 01:48:31;;;;;;;11.48;7.30;;;9.00;69.90;;;;;;4978053;28;20035;-75
2020/12/07 01:50:56;;;;;;;11.85;7.00;;;8.90;69.80;;;;;;4982010;28;20034;-76
2020/12/07 01:53:23;;;;;;;9.60;7.13;;;8.80;69.70;;;;;;4984961;28;20540;-77
2020/12/07 01:55:50;;;;;;;8.88;6.63;;;8.90;69.70;;;;;;4990517;28;20033;-76
2020/12/07 01:58:15;;;;;;;11.20;6.53;;;8.90;69.70;;;;;;4982820;28;20378;-76
2020/12/07 02:00:41;;;;;;;8.95;6.63;;;8.80;69.60;;;;;;4985517;28;20062;-76
2020/12/07 02:03:09;;;;;;;10.10;7.07;;;8.80;69.70;;;;;;4983480;28;20117;-76
2020/12/07 02:05:38;;;;;;;10.88;7.35;;;8.80;69.70;;;;;;4986010;28;20572;-76
2020/12/07 02:08:18;;;;;;;10.13;7.00;;;8.80;69.70;;;;;;4988594;28;20133;-76
2020/12/07 02:10:45;;;;;;;11.20;7.50;;;8.70;69.70;;;;;;4985312;28;20073;-76
2020/12/07 02:13:11;;;;;;;12.15;8.52;;;8.70;70.10;;;;;;4986541;28;20022;-76
2020/12/07 02:15:38;;;;;;;10.57;6.78;;;8.70;69.60;;;;;;4984692;28;20027;-76
2020/12/07 02:18:05;;;;;;;13.02;7.75;;;8.70;69.70;;;;;;4985257;28;20067;-76
2020/12/07 02:20:30;;;;;;;13.38;8.13;;;8.70;69.70;;;;;;4982538;28;20053;-76
2020/12/07 02:22:56;;;;;;;11.80;7.38;;;8.60;69.70;;;;;;4987468;28;20050;-76
2020/12/07 02:25:22;;;;;;;11.32;6.57;;;8.60;69.80;;;;;;4989126;28;20041;-76
2020/12/07 02:27:49;;;;;;;11.20;8.00;;;8.60;69.90;;;;;;4977784;28;20042;-76
2020/12/07 02:30:16;;;;;;;10.90;7.80;;;8.60;70.40;;;;;;4987117;28;20034;-76
2020/12/07 02:32:42;;;;;;;11.13;6.95;;;8.60;70.00;;;;;;4989429;28;20081;-76
2020/12/07 02:35:09;;;;;;;13.95;8.18;;;8.70;70.00;;;;;;4981523;28;20030;-76
2020/12/07 02:37:35;;;;;;;12.45;8.32;;;8.60;69.90;;;;;;4987314;28;20034;-76
2020/12/07 02:40:04;;;;;;;12.32;8.07;;;8.60;69.90;;;;;;4987022;28;20028;-76
2020/12/07 02:42:32;;;;;;;12.73;8.00;;;8.60;69.90;;;;;;4978732;28;20034;-76
2020/12/07 02:44:58;;;;;;;11.65;7.70;;;8.60;69.90;;;;;;4988641;28;20031;-76
2020/12/07 02:47:26;;;;;;;12.80;8.55;;;8.60;69.90;;;;;;4986453;28;20077;-76
2020/12/07 02:49:54;;;;;;;11.13;7.75;;;8.70;70.00;;;;;;4979982;28;20524;-76
2020/12/07 02:52:24;;;;;;;12.15;7.82;;;8.60;70.00;;;;;;4984818;28;20034;-76
2020/12/07 02:55:00;;;;;;;9.65;6.22;;;8.60;70.00;;;;;;4984333;28;20031;-76
2020/12/07 02:57:28;;;;;;;10.65;7.30;;;8.60;70.60;;;;;;4983759;28;20030;-76
2020/12/07 02:59:55;;;;;;;9.82;7.22;;;8.60;69.90;;;;;;4986519;28;20034;-75
2020/12/07 03:02:20;;;;;;;9.43;6.80;;;8.60;69.90;;;;;;4984715;28;20076;-76
2020/12/07 03:04:46;;;;;;;9.13;6.65;;;8.60;69.90;;;;;;4984194;28;20046;-76
2020/12/07 03:07:12;;;;;;;14.40;6.25;;;8.60;69.90;;;;;;4985461;28;20054;-77
2020/12/07 03:09:38;;;;;;;10.68;6.90;;;8.60;69.90;;;;;;4983285;28;20034;-76
2020/12/07 03:12:04;;;;;;;10.75;6.90;;;8.60;69.90;;;;;;4980179;28;20034;-76
2020/12/07 03:14:30;;;;;;;9.43;6.45;;;8.60;69.90;;;;;;4987759;28;20031;-76
2020/12/07 03:16:55;;;;;;;11.63;6.70;;;8.60;69.90;;;;;;4987418;28;20089;-76
2020/12/07 03:19:21;;;;;;;10.20;7.03;;;8.50;69.80;;;;;;4982406;28;20517;-76
2020/12/07 03:21:47;;;;;;;8.07;5.85;;;8.50;69.80;;;;;;4986376;28;20033;-76
2020/12/07 03:24:12;;;;;;;8.32;6.25;;;8.50;69.80;;;;;;4987518;28;20478;-76
2020/12/07 03:26:39;;;;;;;8.80;6.13;;;8.50;69.80;;;;;;4982358;28;20070;-76
2020/12/07 03:29:04;;;;;;;12.15;6.90;;;8.50;69.80;;;;;;4986716;28;20065;-76
2020/12/07 03:31:34;;;;;;;10.90;7.10;;;8.50;69.80;;;;;;4986352;28;20066;-77
2020/12/07 03:34:01;;;;;;;8.13;5.90;;;8.50;69.80;;;;;;4979231;28;20477;-77
2020/12/07 03:36:27;;;;;;;9.60;6.43;;;8.40;69.80;;;;;;4979413;28;20565;-76
2020/12/07 03:38:52;;;;;;;8.20;5.93;;;8.40;69.80;;;;;;4983251;28;20089;-77
2020/12/07 03:41:18;;;;;;;12.27;7.47;;;8.50;69.90;;;;;;4968958;28;20046;-76
2020/12/07 03:43:44;;;;;;;9.15;6.22;;;8.50;70.00;;;;;;4976725;28;20406;-76
2020/12/07 03:46:10;;;;;;;7.95;6.05;;;8.50;70.10;;;;;;4986313;28;20073;-76
2020/12/07 03:48:36;;;;;;;8.63;5.70;;;8.40;70.00;;;;;;4980526;28;20054;-76
2020/12/07 03:51:02;;;;;;;8.57;6.00;;;8.50;70.10;;;;;;4986471;28;20114;-75
2020/12/07 03:53:33;;;;;;;9.48;6.05;;;8.50;70.10;;;;;;4985535;28;20030;-76
2020/12/07 03:55:59;;;;;;;7.78;5.65;;;8.50;70.20;;;;;;4981009;28;20109;-75
2020/12/07 03:58:24;;;;;;;8.75;6.05;;;8.50;70.10;;;;;;4985265;28;20461;-76
2020/12/07 04:00:50;;;;;;;9.10;6.30;;;8.50;70.10;;;;;;4985553;28;20121;-76
2020/12/07 04:03:15;;;;;;;8.73;6.45;;;8.50;70.00;;;;;;4982119;28;20124;-76
2020/12/07 04:05:44;;;;;;;7.93;5.60;;;8.50;70.00;;;;;;4985232;28;20053;-76
2020/12/07 04:08:10;;;;;;;8.02;5.63;;;8.50;69.90;;;;;;4986009;28;20042;-75
2020/12/07 04:10:38;;;;;;;9.55;6.20;;;8.40;69.90;;;;;;4985335;28;20524;-76
2020/12/07 04:13:05;;;;;;;8.45;5.97;;;8.50;70.10;;;;;;4965289;28;20044;-75
2020/12/07 04:15:31;;;;;;;8.82;6.18;;;8.50;70.10;;;;;;4983862;28;20034;-76
2020/12/07 04:17:56;;;;;;;10.00;6.22;;;8.50;70.10;;;;;;4983025;28;20386;-75
2020/12/07 04:20:22;;;;;;;10.30;6.93;;;8.50;70.20;;;;;;4981179;28;20065;-76
2020/12/07 04:22:47;;;;;;;10.40;6.72;;;8.50;70.70;;;;;;4984095;28;20029;-76
2020/12/07 04:25:13;;;;;;;10.32;7.40;;;8.50;70.20;;;;;;4968645;28;20054;-76
2020/12/07 04:27:38;;;;;;;10.15;6.63;;;8.50;70.40;;;;;;4984073;28;20027;-75
2020/12/07 04:30:04;;;;;;;8.32;5.80;;;8.50;70.20;;;;;;4979292;28;20494;-76
2020/12/07 04:32:30;;;;;;;9.45;6.35;;;8.50;70.20;;;;;;4982134;28;20027;-76
2020/12/07 04:34:55;;;;;;;9.90;6.45;;;8.50;70.20;;;;;;4983061;28;20080;-76
2020/12/07 04:37:21;;;;;;;10.07;6.40;;;8.50;70.10;;;;;;4979995;28;20030;-75
2020/12/07 04:39:46;;;;;;;8.73;6.40;;;8.50;70.10;;;;;;4985171;28;20041;-76
2020/12/07 04:42:12;;;;;;;8.45;6.05;;;8.50;70.10;;;;;;4981274;28;20030;-75
2020/12/07 04:44:38;;;;;;;9.48;6.78;;;8.50;70.10;;;;;;4982652;28;20035;-76
2020/12/07 04:47:03;;;;;;;8.55;5.78;;;8.50;70.00;;;;;;4981756;28;20069;-75
2020/12/07 04:49:32;;;;;;;8.25;5.70;;;8.50;70.10;;;;;;4978175;28;20038;-75
2020/12/07 04:51:59;;;;;;;7.50;5.63;;;8.50;70.10;;;;;;4982756;28;20045;-76
2020/12/07 04:54:28;;;;;;;9.77;6.03;;;8.50;70.20;;;;;;4984480;28;20034;-75
2020/12/07 04:56:56;;;;;;;11.15;6.90;;;8.50;70.30;;;;;;4982462;28;20165;-76
2020/12/07 04:59:23;;;;;;;9.93;6.93;;;8.50;70.30;;;;;;4982635;28;20041;-75
2020/12/07 05:01:49;;;;;;;8.18;5.82;;;8.50;70.20;;;;;;4982707;28;20080;-75
2020/12/07 05:04:15;;;;;;;9.82;6.32;;;8.50;70.20;;;;;;4977304;28;20038;-76
2020/12/07 05:06:41;;;;;;;9.30;6.00;;;8.50;70.20;;;;;;4983594;28;20057;-76
2020/12/07 05:09:06;;;;;;;9.48;5.82;;;8.50;70.20;;;;;;4983626;28;20533;-76
2020/12/07 05:11:32;;;;;;;8.20;5.88;;;8.50;70.20;;;;;;4984731;28;20113;-76
2020/12/07 05:14:08;;;;;;;10.40;6.45;;;8.50;70.30;;;;;;4979759;28;20041;-76
2020/12/07 05:16:34;;;;;;;7.47;4.80;;;8.50;70.40;;;;;;4984816;28;20052;-76
2020/12/07 05:19:09;;;;;;;8.57;5.40;;;8.50;70.40;;;;;;4981329;28;20128;-76
2020/12/07 05:21:36;;;;;;;6.45;4.78;;;8.50;70.50;;;;;;4983073;28;20022;-75
2020/12/07 05:24:02;;;;;;;7.78;5.60;;;8.60;71.00;;;;;;4984826;28;20030;-75
2020/12/07 05:26:28;;;;;;;6.50;5.03;;;8.60;70.40;;;;;;4984396;28;20029;-75
2020/12/07 05:29:03;;;;;;;7.72;4.85;;;8.60;70.40;;;;;;4982775;28;20093;-75
2020/12/07 05:31:33;;;;;;;8.55;6.00;;;8.60;70.30;;;;;;4988245;28;20030;-76
2020/12/07 05:33:59;;;;;;;7.35;4.70;;;8.60;70.30;;;;;;4983129;28;20070;-75
2020/12/07 05:36:24;;;;;;;7.20;4.95;;;8.60;70.20;;;;;;4986613;28;20117;-75
2020/12/07 05:38:50;;;;;;;7.20;4.97;;;8.60;70.20;;;;;;4984576;28;20046;-75
2020/12/07 05:41:16;;;;;;;6.93;5.45;;;8.60;70.20;;;;;;4984482;28;20030;-76
2020/12/07 05:43:42;;;;;;;7.85;5.07;;;8.60;70.20;;;;;;4977678;28;20046;-76
2020/12/07 05:46:08;;;;;;;7.10;5.35;;;8.60;70.10;;;;;;4982351;28;20030;-76
2020/12/07 05:48:35;;;;;;;6.93;4.55;;;8.60;70.10;;;;;;4979725;28;20056;-76
2020/12/07 05:51:04;;;;;;;9.10;5.30;;;8.60;70.10;;;;;;4987254;28;20489;-76
2020/12/07 05:53:34;;;;;;;7.97;5.57;;;8.60;70.10;;;;;;4986571;28;20034;-76
2020/12/07 05:56:02;;;;;;;6.70;5.03;;;8.50;70.10;;;;;;4984915;28;20493;-76
2020/12/07 05:58:29;;;;;;;7.57;5.32;;;8.50;70.00;;;;;;4981496;28;20049;-77
2020/12/07 06:00:58;;;;;;;8.40;5.80;;;8.50;69.90;;;;;;4984750;28;20034;-77
2020/12/07 06:03:24;;;;;;;8.15;5.25;;;8.50;70.00;;;;;;4978996;28;20046;-77
2020/12/07 06:05:50;;;;;;;7.55;5.63;;;8.50;70.00;;;;;;4984738;28;20030;-78
2020/12/07 06:08:30;;;;;;;7.40;5.40;;;8.50;70.00;;;;;;4983720;28;20559;-77
2020/12/07 06:11:02;;;;;;;8.57;6.25;;;8.50;70.10;;;;;;4978423;28;20030;-77
2020/12/07 06:13:30;;;;;;;9.13;5.88;;;8.50;70.00;;;;;;4979308;28;20030;-77
2020/12/07 06:15:55;;;;;;;7.68;5.20;;;8.50;70.00;;;;;;4983962;28;20026;-77
2020/12/07 06:18:25;;;;;;;8.25;6.03;;;8.40;70.00;;;;;;4980103;28;20030;-77
2020/12/07 06:21:11;;;;;;;9.30;5.55;;;8.40;70.10;;;;;;4977179;28;20065;-77
2020/12/07 06:23:43;;;;;;;7.70;5.72;;;8.50;70.10;;;;;;4984920;28;20034;-77
2020/12/07 06:26:11;;;;;;;7.38;5.38;;;8.50;70.10;;;;;;4985889;28;20023;-77
2020/12/07 06:28:39;;;;;;;8.60;5.75;;;8.40;70.10;;;;;;4981520;28;20050;-76
2020/12/07 06:31:06;;;;;;;7.55;5.55;;;8.40;70.20;;;;;;4985131;28;20026;-77
2020/12/07 06:33:46;;;;;;;8.77;5.45;;;8.40;70.20;;;;;;4980212;28;20034;-77
2020/12/07 06:36:29;;;;;;;9.00;5.23;;;8.40;70.30;;;;;;4982003;28;20117;-77
2020/12/07 06:39:00;;;;;;;7.28;5.05;;;8.40;70.40;;;;;;4974434;28;20085;-75
2020/12/07 06:41:39;;;;;;;8.20;5.25;;;8.30;70.10;;;;;;4986183;28;20118;-74
2020/12/07 06:44:20;;;;;;;9.70;5.78;;;8.30;70.30;;;;;;4976888;28;20031;-76
2020/12/07 06:46:51;;;;;;;9.30;5.85;;;8.30;70.30;;;;;;4983646;28;20030;-74
2020/12/07 06:49:17;;;;;;;8.10;5.80;;;8.30;70.20;;;;;;4980814;28;20052;-74
2020/12/07 06:51:47;;;;;;;7.88;5.55;;;8.40;70.20;;;;;;4983176;28;20038;-73
2020/12/07 06:57:22;;;;;;;7.50;5.63;;;8.30;70.30;;;;;;4978912;28;20406;-73
2020/12/07 06:59:56;;;;;;;8.15;5.43;;;8.30;70.40;;;;;;4985514;28;20497;-74
2020/12/07 07:02:22;;;;;;;10.93;6.57;;;8.30;70.30;;;;;;4983421;28;20126;-75
2020/12/07 07:04:55;;;;;;;10.68;6.75;;;8.30;70.20;;;;;;4979348;28;20124;-75
2020/12/07 07:07:23;;;;;;;8.90;5.13;;;8.30;70.30;;;;;;4986164;28;20046;-77
2020/12/07 07:09:49;;;;;;;9.13;6.05;;;8.30;70.30;;;;;;4983844;28;20038;-77
2020/12/07 07:12:16;;;;;;;8.93;6.07;;;8.30;70.30;;;;;;4982915;28;20117;-76
2020/12/07 07:14:42;;;;;;;7.05;5.03;;;8.30;70.40;;;;;;4969424;28;20054;-77
2020/12/07 07:17:09;;;;;;;9.55;5.90;;;8.30;70.70;;;;;;4985006;28;20039;-81
2020/12/07 07:19:35;;;;;;;9.00;6.22;;;8.30;70.90;;;;;;4987225;28;20073;-82
2020/12/07 07:22:00;;;;;;;9.38;6.28;;;8.30;70.90;;;;;;4991306;28;20035;-83
2020/12/07 07:24:32;;;;;;;8.93;6.60;;;8.30;70.70;;;;;;4989679;28;20026;-80
2020/12/07 07:27:07;;;;;;;8.77;5.75;;;8.40;70.70;;;;;;4985727;28;20030;-79
2020/12/07 07:29:33;;;;;;;12.02;6.93;;;8.40;70.50;;;;;;4988086;28;20580;-80
2020/12/07 07:31:59;;;;;;;10.60;6.57;;;8.40;70.50;;;;;;4987680;28;20117;-80
2020/12/07 07:34:24;;;;;;;9.35;6.28;;;8.40;70.40;;;;;;4981319;28;20453;-80
2020/12/07 07:36:50;;;;;;;9.48;6.47;;;8.50;70.40;;;;;;4990056;28;20378;-80
2020/12/07 07:39:16;;;;;;;9.38;6.72;;;8.40;70.90;;;;;;4988467;28;20066;-78
2020/12/07 07:41:44;;;;;;;10.70;6.93;;;8.40;70.40;;;;;;4985986;28;20042;-80
2020/12/07 07:44:12;;;;;;;8.98;6.13;;;8.40;70.60;;;;;;4982687;28;20035;-80
2020/12/07 07:46:39;;;;;;;12.30;7.65;;;8.50;70.40;;;;;;4984728;28;20034;-80
2020/12/07 07:49:28;;;;;;;11.88;7.55;;;8.50;70.50;;;;;;4985247;28;20485;-80
2020/12/07 07:57:51;;;;;;;9.20;6.40;;;8.50;70.40;;;;;;4983678;28;20037;-80
2020/12/07 07:58:34;;;;;;;8.77;5.80;;;8.50;70.70;;;;;;4978657;28;20034;-80
2020/12/07 08:03:44;;;;;;;7.82;5.97;;;8.50;70.50;;;;;;4988607;28;20022;-80
2020/12/07 08:17:17;;;;;;;9.77;6.20;;;8.50;70.80;;;;;;4983274;28;20033;-78
2020/12/07 08:19:44;;;;;;;11.95;6.85;;;8.50;70.60;;;;;;4980253;28;20113;-78
2020/12/07 08:22:17;;;;;;;10.90;7.35;;;8.50;70.70;;;;;;4985420;28;20416;-80
2020/12/07 08:24:50;;;;;;;11.27;7.50;;;8.60;70.90;;;;;;4986194;28;20038;-76
2020/12/07 08:27:15;;;;;;;10.98;6.43;;;8.50;70.90;;;;;;4983725;28;20058;-80
2020/12/07 08:29:41;;;;;;;10.68;7.35;;;8.60;70.90;;;;;;4979943;28;20041;-78
2020/12/07 08:32:22;;;;;;;9.60;6.13;;;8.60;70.80;;;;;;4984889;28;20362;-79
2020/12/07 08:34:48;;;;;;;9.32;6.63;;;8.60;71.10;;;;;;4986602;28;20084;-82
2020/12/07 08:37:13;;;;;;;8.90;5.80;;;8.70;70.90;;;;;;4995065;28;20030;-81
2020/12/07 08:39:39;;;;;;;11.43;7.22;;;8.70;70.80;;;;;;4988179;28;20034;-81
2020/12/07 08:42:05;;;;;;;8.90;6.05;;;8.70;70.70;;;;;;4990382;28;20098;-81
2020/12/07 08:44:30;;;;;;;8.30;6.10;;;8.70;70.70;;;;;;4988185;28;20033;-79
2020/12/07 08:46:56;;;;;;;9.65;6.18;;;8.80;70.70;;;;;;4984187;28;20030;-79
2020/12/07 08:49:21;;;;;;;7.22;5.55;;;8.80;70.70;;;;;;4979865;28;20034;-79
2020/12/07 08:51:46;;;;;;;8.82;5.90;;;8.80;70.80;;;;;;4984706;28;20023;-80
2020/12/07 08:54:14;;;;;;;7.03;5.15;;;8.80;70.80;;;;;;4986383;28;20022;-79
2020/12/07 08:56:39;;;;;;;7.05;5.05;;;8.80;70.80;;;;;;4984306;28;20068;-79
2020/12/07 08:59:05;;;;;;;8.38;5.72;;;8.80;70.80;;;;;;4979002;28;20125;-80
2020/12/07 09:01:31;;;;;;;7.25;5.20;;;8.90;70.80;;;;;;4986096;28;20026;-79
2020/12/07 09:03:57;;;;;;;7.20;5.47;;;8.90;70.80;;;;;;4980662;28;20041;-79
2020/12/07 09:06:22;;;;;;;7.45;5.70;;;8.90;70.70;;;;;;4989749;28;20026;-79
2020/12/07 09:08:48;;;;;;;9.82;5.80;;;8.90;70.60;;;;;;4978193;28;20049;-72
2020/12/07 09:11:17;;;;;;;6.45;4.82;;;8.90;70.50;;;;;;4985007;28;20117;-75
2020/12/07 09:13:43;;;;;;;7.72;5.22;;;8.90;70.60;;;;;;4981065;28;20042;-74
2020/12/07 09:16:09;;;;;;;6.30;4.70;;;8.90;70.60;;;;;;4976954;28;20026;-75
2020/12/07 09:18:35;;;;;;;6.32;4.53;;;8.90;70.50;;;;;;4980548;28;20506;-73
2020/12/07 09:21:03;;;;;;;5.07;4.00;;;8.90;70.60;;;;;;4986181;28;20033;-73
2020/12/07 09:23:28;;;;;;;6.70;3.90;;;9.00;70.60;;;;;;4984955;28;20043;-74
2020/12/07 09:25:54;;;;;;;6.13;3.50;;;8.90;70.50;;;;;;4965896;28;20038;-73
2020/12/07 09:28:19;;;;;;;3.75;2.85;;;9.00;70.50;;;;;;4977410;28;20054;-73
2020/12/07 09:30:45;;;;;;;3.50;2.50;;;8.90;70.40;;;;;;4982793;28;20042;-73
2020/12/07 09:33:11;;;;;;;2.53;1.88;;;9.00;70.30;;;;;;4981471;28;20105;-71
2020/12/07 09:35:40;;;;;;;2.03;1.67;;;9.00;70.30;;;;;;4981333;28;20047;-72
2020/12/07 09:38:06;;;;;;;2.80;1.35;;;9.00;70.20;;;;;;4980116;28;20034;-72
2020/12/07 09:40:32;;;;;;;1.17;0.95;;;8.90;70.10;;;;;;4980550;28;20049;-72
2020/12/07 09:42:57;;;;;;;1.05;0.88;;;8.90;70.10;;;;;;4982035;28;20026;-71
2020/12/07 09:45:23;;;;;;;1.08;0.80;;;9.00;70.20;;;;;;4964816;28;20449;-72
2020/12/07 09:47:48;;;;;;;1.17;0.80;;;8.90;70.10;;;;;;4965415;28;20378;-72
2020/12/07 09:50:14;;;;;;;0.90;0.77;;;8.90;70.10;;;;;;4982097;28;20031;-71
2020/12/07 09:52:39;;;;;;;1.48;1.20;;;8.90;70.10;;;;;;4983708;28;20114;-71
2020/12/07 09:55:06;;;;;;;1.48;1.23;;;8.90;70.10;;;;;;4984595;28;20420;-71
2020/12/07 09:57:32;;;;;;;1.70;1.30;;;8.90;70.10;;;;;;4983738;28;20022;-71
2020/12/07 09:59:57;;;;;;;1.55;1.30;;;8.90;70.10;;;;;;4976091;28;20042;-71
2020/12/07 10:02:23;;;;;;;1.63;1.30;;;8.90;70.10;;;;;;4983100;28;20548;-71
2020/12/07 10:04:49;;;;;;;2.03;1.77;;;8.90;70.20;;;;;;4979858;28;20387;-72
2020/12/07 10:07:14;;;;;;;2.10;1.58;;;8.90;70.20;;;;;;4983485;28;20085;-71
2020/12/07 10:09:40;;;;;;;1.70;1.40;;;8.90;70.10;;;;;;4983599;28;20103;-71
2020/12/07 10:12:06;;;;;;;1.50;1.38;;;8.90;70.10;;;;;;4979641;28;20042;-71
2020/12/07 10:14:31;;;;;;;1.58;1.45;;;8.90;70.10;;;;;;4982967;28;20030;-71
2020/12/07 10:16:58;;;;;;;1.30;1.15;;;8.90;70.00;;;;;;4985945;28;20034;-71
2020/12/07 10:19:24;;;;;;;1.63;1.30;;;8.90;70.00;;;;;;4983774;28;20042;-72
2020/12/07 10:21:50;;;;;;;1.80;1.52;;;8.90;70.00;;;;;;4984464;28;20409;-72
2020/12/07 10:24:15;;;;;;;1.40;1.27;;;8.90;70.00;;;;;;4987334;28;20026;-71
2020/12/07 10:26:41;;;;;;;1.58;1.48;;;8.90;70.00;;;;;;4987727;28;20081;-72
2020/12/07 10:29:06;;;;;;;1.95;1.33;;;8.90;70.00;;;;;;4978647;28;20034;-71
2020/12/07 10:31:32;;;;;;;1.33;1.23;;;8.90;70.10;;;;;;4986923;28;20041;-71
2020/12/07 10:33:57;;;;;;;1.58;1.38;;;8.90;70.10;;;;;;4983118;28;20493;-72
2020/12/07 10:36:24;;;;;;;2.90;1.25;;;8.90;70.10;;;;;;4986828;28;20042;-72
2020/12/07 10:38:51;;;;;;;1.85;1.60;;;8.90;70.10;;;;;;4988888;28;20042;-72
2020/12/07 10:41:17;;;;;;;1.88;1.70;;;8.90;70.10;;;;;;4984098;28;20568;-71
2020/12/07 10:43:43;;;;;;;1.70;1.58;;;8.90;70.10;;;;;;4983353;28;20066;-72
2020/12/07 10:46:12;;;;;;;1.58;1.48;;;9.00;70.10;;;;;;4986436;28;20509;-71
2020/12/07 10:48:38;;;;;;;1.88;1.67;;;8.90;70.10;;;;;;4978456;28;20039;-72
2020/12/07 10:51:03;;;;;;;2.42;2.10;;;8.90;70.10;;;;;;4985013;28;20038;-72
2020/12/07 10:53:29;;;;;;;1.98;1.80;;;8.90;70.00;;;;;;4986247;28;20085;-72
2020/12/07 10:55:55;;;;;;;2.55;1.90;;;9.00;70.10;;;;;;4987690;28;20539;-72
2020/12/07 10:58:21;;;;;;;2.22;1.70;;;8.90;70.00;;;;;;4981119;28;20046;-72
2020/12/07 11:00:47;;;;;;;2.10;1.80;;;8.90;70.00;;;;;;4966885;28;20494;-72
2020/12/07 11:03:12;;;;;;;1.55;1.45;;;9.00;70.00;;;;;;4975392;28;20073;-72
2020/12/07 11:05:39;;;;;;;1.77;1.55;;;8.90;69.90;;;;;;4983923;28;20628;-73
2020/12/07 11:08:47;;;;;;;2.72;1.90;;;9.00;70.00;;;;;;4984271;28;20417;-73
2020/12/07 11:10:57;;;;;;;1.90;1.67;;;8.90;69.90;;;;;;4977514;28;20054;-74
2020/12/07 11:13:27;;;;;;;3.33;2.20;;;8.90;69.90;;;;;;4986693;28;20128;-74
2020/12/07 11:15:53;;;;;;;1.95;1.73;;;8.90;70.00;;;;;;4979775;28;20468;-72
2020/12/07 11:18:18;;;;;;;1.95;1.63;;;8.90;70.00;;;;;;4980290;28;20121;-73
2020/12/07 11:20:44;;;;;;;2.17;1.92;;;8.90;70.10;;;;;;4985056;28;20053;-73
2020/12/07 11:23:09;;;;;;;3.40;2.13;;;8.90;70.10;;;;;;4984378;28;20436;-73
2020/12/07 11:25:35;;;;;;;2.83;2.10;;;9.00;70.20;;;;;;4984113;28;20035;-75
2020/12/07 11:28:00;;;;;;;2.75;1.90;;;9.00;70.10;;;;;;4987426;28;20049;-73
2020/12/07 11:30:26;;;;;;;3.22;2.13;;;8.90;70.00;;;;;;4986209;28;20034;-73
2020/12/07 11:32:51;;;;;;;2.17;1.90;;;8.90;70.00;;;;;;4984628;28;20463;-73
2020/12/07 11:35:17;;;;;;;2.83;2.28;;;8.90;70.00;;;;;;4988784;28;20022;-73
2020/12/07 11:37:42;;;;;;;2.35;2.13;;;8.90;70.00;;;;;;4984660;28;20030;-73
2020/12/07 11:42:50;;;;;;;2.42;1.90;;;8.90;70.10;;;;;;4980540;28;20129;-74
2020/12/07 11:45:16;;;;;;;2.17;1.85;;;8.90;70.20;;;;;;4983821;28;20030;-73
2020/12/07 11:47:41;;;;;;;2.33;2.13;;;8.90;70.20;;;;;;4984274;28;20049;-73
2020/12/07 11:50:07;;;;;;;3.25;2.17;;;8.90;70.20;;;;;;4980886;28;20125;-73
2020/12/07 11:52:32;;;;;;;2.75;2.17;;;8.80;70.10;;;;;;4984370;28;20573;-73
2020/12/07 11:54:58;;;;;;;2.47;2.28;;;8.90;70.20;;;;;;4984254;28;20501;-73
2020/12/07 11:57:23;;;;;;;2.53;2.28;;;8.90;70.20;;;;;;4981992;28;20039;-73
2020/12/07 11:59:49;;;;;;;2.35;2.15;;;8.90;70.30;;;;;;4985062;28;20040;-73
2020/12/07 12:02:14;;;;;;;2.53;2.22;;;8.90;70.30;;;;;;4984814;28;20429;-73
2020/12/07 12:04:40;;;;;;;3.58;2.17;;;8.90;70.40;;;;;;4981177;28;20038;-73
2020/12/07 12:07:07;;;;;;;3.92;2.65;;;8.90;70.40;;;;;;4985863;28;20073;-74
2020/12/07 12:09:32;;;;;;;2.70;2.10;;;8.90;70.40;;;;;;4979920;28;20046;-73
2020/12/07 12:11:58;;;;;;;2.97;2.65;;;9.00;70.50;;;;;;4976898;28;20445;-73
2020/12/07 12:14:23;;;;;;;3.20;2.50;;;8.90;70.50;;;;;;4985313;28;20036;-73
2020/12/07 12:16:49;;;;;;;3.17;2.80;;;9.00;70.60;;;;;;4983563;28;20038;-73
2020/12/07 12:19:15;;;;;;;4.15;3.10;;;9.00;70.60;;;;;;4980808;28;20034;-73
2020/12/07 12:21:40;;;;;;;3.40;2.88;;;8.90;70.50;;;;;;4986099;28;20038;-74
2020/12/07 12:24:06;;;;;;;5.20;4.15;;;9.00;70.60;;;;;;4987471;28;20425;-73
2020/12/07 12:26:33;;;;;;;4.03;3.13;;;9.00;70.60;;;;;;4983892;28;20113;-73
2020/12/07 12:28:59;;;;;;;3.75;3.13;;;9.00;70.60;;;;;;4988665;28;20023;-73
2020/12/07 12:31:25;;;;;;;3.42;3.05;;;9.00;70.60;;;;;;4983267;28;20026;-73
2020/12/07 12:33:53;;;;;;;4.32;3.65;;;9.00;70.60;;;;;;4977178;28;20100;-72
2020/12/07 12:36:20;;;;;;;3.45;2.90;;;9.10;70.70;;;;;;4984188;28;20037;-72
2020/12/07 12:38:46;;;;;;;4.22;3.40;;;9.00;70.60;;;;;;4977413;28;20061;-73
2020/12/07 12:41:12;;;;;;;4.35;3.33;;;9.10;71.20;;;;;;4984757;28;20027;-72
2020/12/07 12:43:38;;;;;;;4.03;3.60;;;9.10;70.70;;;;;;4982702;28;20034;-72
2020/12/07 12:46:04;;;;;;;4.50;3.15;;;9.10;70.70;;;;;;4976793;28;20042;-72
2020/12/07 12:48:31;;;;;;;4.60;3.83;;;9.10;70.80;;;;;;4977412;28;20053;-72
2020/12/07 12:50:56;;;;;;;5.15;3.92;;;9.20;70.80;;;;;;4977133;28;20037;-72
2020/12/07 12:53:22;;;;;;;4.45;3.97;;;9.10;70.80;;;;;;4975005;28;20027;-72
2020/12/07 12:55:47;;;;;;;4.93;3.88;;;9.10;70.80;;;;;;4979644;28;20038;-73
2020/12/07 12:58:13;;;;;;;5.38;4.72;;;9.20;70.90;;;;;;4984284;28;20023;-72
2020/12/07 13:00:38;;;;;;;5.72;4.68;;;9.20;70.80;;;;;;4981150;28;20030;-72
2020/12/07 13:03:03;;;;;;;4.57;4.10;;;9.20;70.80;;;;;;4981161;28;20409;-72
2020/12/07 13:05:29;;;;;;;4.47;3.90;;;9.20;70.80;;;;;;4979436;28;20030;-73
2020/12/07 13:07:54;;;;;;;4.88;3.88;;;9.20;70.80;;;;;;4983265;28;20566;-72
2020/12/07 13:10:20;;;;;;;4.10;3.47;;;9.30;70.90;;;;;;4961529;28;20509;-73
2020/12/07 13:12:45;;;;;;;5.05;4.32;;;9.30;70.90;;;;;;4978969;28;20132;-72
2020/12/07 13:15:13;;;;;;;5.72;4.70;;;9.30;70.90;;;;;;4978913;28;20074;-72
2020/12/07 13:17:39;;;;;;;7.82;4.80;;;9.30;70.90;;;;;;4976294;28;20089;-72